Terminal Aerodrome Forecast
Issued by NWS

Current Version | Previous Version | Text Only | Print | Product List | Glossary On
Versions: 1 2 3 4 5 6 7 8 9 10 11 12
000
FTUS46 KHNX 302320
TAFBFL
TAF
KBFL 302320Z 3100/3124 32011KT P6SM FEW200
     FM310900 VRB04KT P6SM FEW200
      TEMPO 3121/3124 34010G15KT=

USA.gov is the U.S. government's official web portal to all federal, state and local government web resources and services.